KSDM/SDM METAR and TAF weather

Enter ICAO airport designator
Station Type Date Time Source
KSDM METAR 2022/12/04 11:53 UTC NOAA

KSDM 041153Z AUTO 13005KT 10SM CLR 08/06 A3008 RMK AO2 SLP186 T00830061 10117 20078 58001


Station Type Date Time Source
KSDM Decoded METAR 2022/12/04 11:53 UTC NOAA

San Diego, Brown Field Municipal Airport, CA, United States (KSDM) 32-34-31N 116-59-35W 159M
Dec 04, 2022 - 06:53 AM EST / 2022.12.04 1153 UTC
Wind: from the SE (130 degrees) at 6 MPH (5 KT):0
Visibility: 10 mile(s):0
Sky conditions: clear
Temperature: 46.9 F (8.3 C)
Dew Point: 43.0 F (6.1 C)
Relative Humidity: 86%
Pressure (altimeter): 30.08 in. Hg (1018 hPa)
Pressure tendency: 0.00 inches (0.1 hPa) lower than three hours ago
ob: KSDM 041153Z AUTO 13005KT 10SM CLR 08/06 A3008 RMK AO2 SLP186 T00830061 10117 20078 58001
cycle: 12

Station Type Date Time Source
KSDM TAF UTC NOAA

Error!

Example: see airport list